KBCK

Black River Falls Area Airport

Black River Falls, Wisconsin, USA
METAR KBCK 180515Z AUTO 00000KT 2SM BR CLR 16/16 A3006 RMK AO2 VIS 1/2V5 T01640164
Observed Flight Rules
Aug-18 @ 05:15 UTC (19 hours ago) Instrument Flight Rules
Visibility Clouds Conditions
2 miles
  • Clear skies
  • Mist
Temperatures Readings
Current 16°C / 61°F
Dewpoint 16°C / 61°F
Humidity 100%
Altimeter 30.06" Hg
Pressure 1018 hPa
Elevation 255
METAR KBCK 180515Z AUTO 00000KT 2SM BR CLR 16/16 A3006 RMK AO2 VIS 1/2V5 T01640164
Observed Flight Rules
Aug-18 @ 05:15 UTC
(19 hours ago)
IFR
Clouds
  • Clear skies
Conditions
  • Mist
Temperature Dewpoint
16°C / 61°F 16°C / 61°F
Humidity Altimeter Pressure
100% 30.06" Hg 1018 hPa